Time;durP1;ratioP1;P1;durP2;ratioP2;P2;SDS_P1;SDS_P2;PMS_P1;PMS_P2;Temp;Humidity;BMP_temperature;BMP_pressure;BME280_temperature;BME280_humidity;BME280_pressure;Samples;Min_cycle;Max_cycle;Signal;HPM_P1;HPM_P2
2021/07/11 00:01:17;;;;;;;3.15;2.45;;;;;;;;;;6950782;28;20465;-92
2021/07/11 00:04:38;;;;;;;3.45;2.53;;;;;;;;;;6930350;28;20555;-90
2021/07/11 00:07:58;;;;;;;3.20;2.35;;;;;;;;;;6959334;28;20438;-91
2021/07/11 00:11:19;;;;;;;4.25;2.38;;;;;;;;;;6943874;28;20049;-90
2021/07/11 00:14:39;;;;;;;4.70;2.45;;;;;;;;;;6962120;28;20045;-90
2021/07/11 00:18:02;;;;;;;2.60;1.67;;;;;;;;;;6957970;28;20131;-91
2021/07/11 00:21:22;;;;;;;2.65;1.90;;;;;;;;;;6946692;28;20483;-90
2021/07/11 00:24:44;;;;;;;3.42;2.42;;;;;;;;;;6940592;28;20037;-91
2021/07/11 00:28:05;;;;;;;3.47;2.17;;;;;;;;;;6950243;28;20114;-91
2021/07/11 00:31:25;;;;;;;5.55;2.15;;;;;;;;;;6965475;28;20453;-91
2021/07/11 00:34:46;;;;;;;5.45;2.05;;;;;;;;;;6950336;28;20572;-88
2021/07/11 00:38:06;;;;;;;3.42;1.90;;;;;;;;;;6966840;28;20117;-88
2021/07/11 00:41:27;;;;;;;4.55;2.30;;;;;;;;;;6968520;28;20124;-87
2021/07/11 00:44:47;;;;;;;4.25;2.10;;;;;;;;;;6956466;28;20100;-87
2021/07/11 00:48:08;;;;;;;3.00;2.20;;;;;;;;;;6965415;28;20037;-87
2021/07/11 00:51:29;;;;;;;4.45;2.08;;;;;;;;;;6965567;28;20116;-87
2021/07/11 00:54:49;;;;;;;4.80;2.22;;;;;;;;;;6954042;28;20128;-89
2021/07/11 00:58:09;;;;;;;3.28;2.22;;;;;;;;;;6966659;28;20485;-83
2021/07/11 01:01:35;;;;;;;4.60;1.88;;;;;;;;;;6968042;28;20560;-84
2021/07/11 01:05:00;;;;;;;5.75;1.92;;;;;;;;;;6967022;28;20486;-84
2021/07/11 01:08:40;;;;;;;2.05;1.85;;;;;;;;;;6964885;28;20057;-85
2021/07/11 01:12:04;;;;;;;2.75;1.80;;;;;;;;;;6966503;28;20045;-85
2021/07/11 01:15:26;;;;;;;7.82;2.03;;;;;;;;;;6964403;28;20048;-85
2021/07/11 01:18:47;;;;;;;2.65;1.77;;;;;;;;;;6966291;28;20056;-85
2021/07/11 01:22:11;;;;;;;1.92;1.83;;;;;;;;;;6965939;28;20053;-84
2021/07/11 01:25:46;;;;;;;2.03;1.80;;;;;;;;;;6967635;28;20044;-84
2021/07/11 01:29:07;;;;;;;6.30;2.08;;;;;;;;;;7016598;23;20645;-81
2021/07/11 01:32:28;;;;;;;2.55;1.95;;;;;;;;;;6971306;28;20044;-80
2021/07/11 01:35:49;;;;;;;2.50;1.95;;;;;;;;;;6970078;28;20495;-80
2021/07/11 01:39:10;;;;;;;3.42;2.20;;;;;;;;;;6974050;28;20529;-81
2021/07/11 01:42:31;;;;;;;5.53;2.03;;;;;;;;;;6952239;28;20166;-81
2021/07/11 01:45:53;;;;;;;2.33;1.90;;;;;;;;;;6972814;28;20045;-79
2021/07/11 01:49:13;;;;;;;2.72;1.80;;;;;;;;;;6971859;28;20045;-81
2021/07/11 01:52:34;;;;;;;3.08;1.80;;;;;;;;;;6973264;28;20060;-81
2021/07/11 01:55:55;;;;;;;3.20;1.90;;;;;;;;;;6968985;28;20592;-81
2021/07/11 01:59:15;;;;;;;2.65;1.63;;;;;;;;;;6974719;28;20075;-81
2021/07/11 02:02:36;;;;;;;4.50;1.65;;;;;;;;;;6973934;28;20064;-81
2021/07/11 02:05:56;;;;;;;2.33;1.90;;;;;;;;;;6973341;28;20045;-80
2021/07/11 02:09:17;;;;;;;2.42;2.00;;;;;;;;;;6965003;28;20121;-81
2021/07/11 02:12:48;;;;;;;2.10;1.90;;;;;;;;;;6967506;28;20083;-81
2021/07/11 02:16:23;;;;;;;1.80;1.70;;;;;;;;;;6972544;28;20186;-82
2021/07/11 02:19:44;;;;;;;2.55;1.77;;;;;;;;;;6976459;28;20041;-81
2021/07/11 02:23:05;;;;;;;3.35;1.83;;;;;;;;;;6969009;28;20111;-82
2021/07/11 02:26:26;;;;;;;1.73;1.63;;;;;;;;;;6971949;28;20080;-80
2021/07/11 02:29:52;;;;;;;2.42;1.73;;;;;;;;;;6963454;28;20483;-82
2021/07/11 02:33:13;;;;;;;1.65;1.55;;;;;;;;;;6976506;28;20451;-80
2021/07/11 02:36:33;;;;;;;2.25;1.70;;;;;;;;;;6965217;28;20376;-81
2021/07/11 02:39:54;;;;;;;2.05;1.67;;;;;;;;;;6976313;28;20048;-81
2021/07/11 02:43:16;;;;;;;1.75;1.58;;;;;;;;;;6977865;28;20521;-82
2021/07/11 02:46:43;;;;;;;2.15;1.60;;;;;;;;;;6978331;28;20049;-83
2021/07/11 02:50:06;;;;;;;2.30;1.67;;;;;;;;;;6977343;28;20056;-83
2021/07/11 02:53:28;;;;;;;1.88;1.70;;;;;;;;;;6976922;28;20061;-80
2021/07/11 02:56:51;;;;;;;1.65;1.55;;;;;;;;;;6970814;28;20046;-82
2021/07/11 03:00:12;;;;;;;2.30;1.88;;;;;;;;;;6970206;28;20053;-82
2021/07/11 03:03:34;;;;;;;2.97;1.50;;;;;;;;;;6976454;28;20045;-82
2021/07/11 03:06:54;;;;;;;3.17;1.60;;;;;;;;;;6977281;28;20391;-83
2021/07/11 03:10:15;;;;;;;3.75;1.70;;;;;;;;;;6978329;28;20510;-85
2021/07/11 03:13:36;;;;;;;2.17;1.58;;;;;;;;;;6977047;28;20120;-84
2021/07/11 03:16:57;;;;;;;1.85;1.30;;;;;;;;;;6977066;28;20045;-84
2021/07/11 03:20:18;;;;;;;1.60;1.50;;;;;;;;;;6978710;28;20584;-85
2021/07/11 03:23:39;;;;;;;2.67;1.50;;;;;;;;;;6976097;28;20041;-85
2021/07/11 03:27:01;;;;;;;1.65;1.42;;;;;;;;;;6960117;28;20057;-85
2021/07/11 03:30:22;;;;;;;1.55;1.38;;;;;;;;;;6976032;28;20098;-84
2021/07/11 03:33:46;;;;;;;1.70;1.55;;;;;;;;;;6965216;28;20087;-85
2021/07/11 03:37:10;;;;;;;1.48;1.38;;;;;;;;;;6978105;28;20139;-84
2021/07/11 03:40:41;;;;;;;3.58;1.55;;;;;;;;;;6976445;28;20057;-84
2021/07/11 03:44:03;;;;;;;1.45;1.30;;;;;;;;;;6951328;28;20049;-83
2021/07/11 03:47:27;;;;;;;5.82;1.45;;;;;;;;;;6962064;28;20045;-85
2021/07/11 03:50:53;;;;;;;1.50;1.40;;;;;;;;;;6977309;28;20049;-84
2021/07/11 03:54:14;;;;;;;1.67;1.35;;;;;;;;;;6976231;28;20065;-82
2021/07/11 03:57:35;;;;;;;2.15;1.50;;;;;;;;;;6975490;28;20072;-82
2021/07/11 04:00:57;;;;;;;1.50;1.40;;;;;;;;;;6975418;28;20051;-82
2021/07/11 04:04:19;;;;;;;2.20;1.35;;;;;;;;;;6976371;28;20084;-83
2021/07/11 04:07:40;;;;;;;1.45;1.30;;;;;;;;;;6974957;28;20079;-81
2021/07/11 04:11:00;;;;;;;6.78;1.60;;;;;;;;;;6977264;28;20130;-82
2021/07/11 04:14:21;;;;;;;1.77;1.58;;;;;;;;;;6977053;28;20052;-82
2021/07/11 04:17:46;;;;;;;1.60;1.50;;;;;;;;;;6976657;28;20063;-82
2021/07/11 04:21:07;;;;;;;1.50;1.40;;;;;;;;;;6965756;28;20128;-83
2021/07/11 04:24:27;;;;;;;2.00;1.40;;;;;;;;;;6961585;28;20136;-82
2021/07/11 04:27:49;;;;;;;1.05;1.02;;;;;;;;;;6971731;28;20056;-82
2021/07/11 04:31:10;;;;;;;1.50;1.40;;;;;;;;;;6975223;28;20113;-83
2021/07/11 04:34:36;;;;;;;2.25;1.50;;;;;;;;;;6976123;28;20106;-82
2021/07/11 04:37:57;;;;;;;1.17;1.15;;;;;;;;;;6961850;28;20436;-82
2021/07/11 04:41:17;;;;;;;2.13;1.48;;;;;;;;;;6975362;28;20041;-82
2021/07/11 04:44:40;;;;;;;1.13;1.10;;;;;;;;;;6976210;28;20094;-83
2021/07/11 04:48:01;;;;;;;1.42;1.30;;;;;;;;;;6976307;28;20051;-82
2021/07/11 04:51:22;;;;;;;1.48;1.20;;;;;;;;;;6969086;28;21591;-82
2021/07/11 04:54:43;;;;;;;1.30;1.20;;;;;;;;;;6973207;28;20144;-83
2021/07/11 04:58:03;;;;;;;1.20;1.10;;;;;;;;;;6973933;28;20044;-83
2021/07/11 05:01:25;;;;;;;2.28;1.30;;;;;;;;;;6976010;28;20045;-83
2021/07/11 05:04:45;;;;;;;1.65;1.33;;;;;;;;;;6974937;28;20037;-83
2021/07/11 05:08:06;;;;;;;1.52;1.42;;;;;;;;;;6975909;28;20056;-83
2021/07/11 05:11:27;;;;;;;1.60;1.50;;;;;;;;;;6975577;28;20049;-82
2021/07/11 05:14:48;;;;;;;2.25;1.17;;;;;;;;;;6974364;28;20053;-82
2021/07/11 05:18:08;;;;;;;1.75;1.40;;;;;;;;;;6974548;28;20097;-83
2021/07/11 05:21:29;;;;;;;1.30;1.20;;;;;;;;;;6972822;28;20056;-81
2021/07/11 05:24:49;;;;;;;1.55;1.20;;;;;;;;;;6975193;28;20098;-82
2021/07/11 05:28:10;;;;;;;4.07;1.20;;;;;;;;;;6975103;28;20069;-83
2021/07/11 05:31:30;;;;;;;1.52;1.42;;;;;;;;;;6974661;28;20065;-82
2021/07/11 05:34:50;;;;;;;1.40;1.30;;;;;;;;;;6975213;28;20185;-83
2021/07/11 05:38:12;;;;;;;2.40;1.00;;;;;;;;;;6975348;28;20398;-83
2021/07/11 05:41:33;;;;;;;2.25;1.30;;;;;;;;;;6973090;28;20398;-82
2021/07/11 05:44:53;;;;;;;2.35;1.30;;;;;;;;;;6966298;28;20487;-83
2021/07/11 05:48:13;;;;;;;2.30;1.25;;;;;;;;;;6969966;28;20052;-83
2021/07/11 05:51:34;;;;;;;1.33;1.23;;;;;;;;;;6976231;28;20471;-84
2021/07/11 05:54:54;;;;;;;3.00;1.30;;;;;;;;;;6979639;28;20055;-84
2021/07/11 05:58:15;;;;;;;2.72;1.45;;;;;;;;;;6967263;28;20084;-84
2021/07/11 06:01:35;;;;;;;1.45;1.20;;;;;;;;;;6977087;28;20071;-83
2021/07/11 06:04:55;;;;;;;1.45;1.35;;;;;;;;;;6968606;28;20045;-84
2021/07/11 06:08:16;;;;;;;2.00;1.40;;;;;;;;;;6977707;28;20067;-83
2021/07/11 06:11:36;;;;;;;1.67;1.30;;;;;;;;;;6967643;28;20041;-82
2021/07/11 06:14:56;;;;;;;1.30;1.20;;;;;;;;;;6964722;28;20049;-82
2021/07/11 06:18:17;;;;;;;1.27;1.17;;;;;;;;;;6966102;28;20056;-82
2021/07/11 06:21:38;;;;;;;1.30;1.20;;;;;;;;;;6979332;28;20391;-82
2021/07/11 06:24:58;;;;;;;2.03;1.30;;;;;;;;;;6966906;28;20037;-81
2021/07/11 06:28:19;;;;;;;1.27;1.17;;;;;;;;;;6976581;28;20067;-82
2021/07/11 06:31:39;;;;;;;2.47;1.30;;;;;;;;;;6962972;28;20509;-81
2021/07/11 06:35:00;;;;;;;1.08;1.08;;;;;;;;;;6975389;28;20075;-82
2021/07/11 06:38:20;;;;;;;1.25;1.15;;;;;;;;;;6969501;28;20167;-82
2021/07/11 06:41:41;;;;;;;2.15;1.20;;;;;;;;;;6967426;28;20056;-82
2021/07/11 06:45:02;;;;;;;1.30;1.20;;;;;;;;;;6975236;28;20049;-82
2021/07/11 06:48:22;;;;;;;1.35;1.08;;;;;;;;;;6977482;28;20482;-80
2021/07/11 06:51:43;;;;;;;0.88;0.88;;;;;;;;;;6972949;28;20060;-87
2021/07/11 06:55:05;;;;;;;1.15;0.95;;;;;;;;;;6957117;28;20045;-89
2021/07/11 06:58:26;;;;;;;1.05;1.00;;;;;;;;;;6977104;28;20053;-79
2021/07/11 07:01:46;;;;;;;1.45;1.30;;;;;;;;;;6971933;28;20510;-78
2021/07/11 07:05:08;;;;;;;0.95;0.95;;;;;;;;;;6974017;28;20040;-81
2021/07/11 07:08:28;;;;;;;1.27;1.17;;;;;;;;;;6975959;28;20076;-82
2021/07/11 07:11:52;;;;;;;1.98;1.20;;;;;;;;;;6977782;28;20376;-81
2021/07/11 07:15:13;;;;;;;1.30;1.20;;;;;;;;;;6971804;28;20090;-86
2021/07/11 07:18:33;;;;;;;1.50;1.20;;;;;;;;;;6977699;28;20052;-87
2021/07/11 07:21:53;;;;;;;1.30;1.20;;;;;;;;;;6970437;28;20044;-88
2021/07/11 07:25:17;;;;;;;1.17;1.00;;;;;;;;;;6959316;28;20049;-90
2021/07/11 07:28:38;;;;;;;1.33;1.23;;;;;;;;;;6976045;28;20075;-83
2021/07/11 07:31:58;;;;;;;1.00;1.00;;;;;;;;;;6972154;28;20037;-82
2021/07/11 07:35:20;;;;;;;1.25;1.15;;;;;;;;;;6976927;28;20045;-82
2021/07/11 07:38:40;;;;;;;3.30;1.15;;;;;;;;;;6976524;28;20063;-82
2021/07/11 07:42:00;;;;;;;5.00;1.85;;;;;;;;;;6973513;28;20045;-81
2021/07/11 07:45:21;;;;;;;1.25;1.05;;;;;;;;;;6976638;28;20512;-82
2021/07/11 07:48:41;;;;;;;1.13;1.02;;;;;;;;;;6976840;28;20384;-82
2021/07/11 07:52:02;;;;;;;1.30;1.10;;;;;;;;;;6975901;28;20037;-79
2021/07/11 07:55:23;;;;;;;1.52;1.27;;;;;;;;;;6973806;28;20057;-81
2021/07/11 07:58:43;;;;;;;0.93;0.90;;;;;;;;;;6976433;28;20052;-81
2021/07/11 08:02:03;;;;;;;1.25;1.10;;;;;;;;;;6975253;28;20119;-81
2021/07/11 08:05:24;;;;;;;1.52;1.02;;;;;;;;;;6977138;28;20069;-82
2021/07/11 08:08:44;;;;;;;1.73;1.30;;;;;;;;;;6976934;28;20100;-82
2021/07/11 08:12:05;;;;;;;1.25;1.15;;;;;;;;;;6972060;28;20079;-83
2021/07/11 08:15:25;;;;;;;1.90;1.20;;;;;;;;;;6969377;28;20099;-84
2021/07/11 08:18:46;;;;;;;1.45;1.10;;;;;;;;;;6974632;28;20041;-81
2021/07/11 08:22:07;;;;;;;1.30;1.20;;;;;;;;;;6976332;28;20049;-81
2021/07/11 08:25:27;;;;;;;1.23;1.00;;;;;;;;;;6974920;28;20490;-82
2021/07/11 08:28:48;;;;;;;3.40;3.20;;;;;;;;;;6976582;28;20402;-80
2021/07/11 08:32:08;;;;;;;2.42;1.35;;;;;;;;;;6967833;28;20055;-82
2021/07/11 08:35:30;;;;;;;3.00;1.30;;;;;;;;;;6967195;28;20049;-82
2021/07/11 08:38:50;;;;;;;3.17;1.40;;;;;;;;;;6968210;28;20048;-82
2021/07/11 08:42:11;;;;;;;1.60;1.50;;;;;;;;;;6968487;28;20045;-83
2021/07/11 08:45:33;;;;;;;1.52;1.42;;;;;;;;;;6967997;28;20053;-83
2021/07/11 08:48:54;;;;;;;1.77;1.42;;;;;;;;;;6968230;28;20057;-83
2021/07/11 08:52:14;;;;;;;1.50;1.40;;;;;;;;;;6964658;28;20087;-84
2021/07/11 08:55:35;;;;;;;2.08;1.63;;;;;;;;;;6961462;28;20049;-82
2021/07/11 08:58:56;;;;;;;1.67;1.50;;;;;;;;;;6960826;28;20041;-83
2021/07/11 09:02:17;;;;;;;2.45;1.40;;;;;;;;;;6968146;28;20052;-83
2021/07/11 09:05:42;;;;;;;2.92;1.33;;;;;;;;;;6967094;28;20205;-82
2021/07/11 09:09:02;;;;;;;1.40;1.30;;;;;;;;;;6968005;28;20076;-83
2021/07/11 09:12:23;;;;;;;2.25;1.60;;;;;;;;;;6953173;28;20080;-83
2021/07/11 09:15:47;;;;;;;1.95;1.65;;;;;;;;;;6961317;28;20049;-82
2021/07/11 09:19:31;;;;;;;1.50;1.40;;;;;;;;;;6960831;28;20041;-82
2021/07/11 09:22:57;;;;;;;3.42;1.70;;;;;;;;;;6963865;28;20140;-82
2021/07/11 09:26:19;;;;;;;2.55;1.50;;;;;;;;;;6968784;28;20048;-85
2021/07/11 09:29:41;;;;;;;1.33;1.23;;;;;;;;;;6975274;28;20048;-83
2021/07/11 09:33:01;;;;;;;6.05;1.60;;;;;;;;;;6975356;28;20379;-85
2021/07/11 09:36:23;;;;;;;2.58;1.80;;;;;;;;;;6975985;28;20553;-85
2021/07/11 09:39:54;;;;;;;2.80;1.92;;;;;;;;;;6972510;28;20040;-83
2021/07/11 09:43:14;;;;;;;2.72;1.88;;;;;;;;;;6971713;28;20129;-84
2021/07/11 09:46:35;;;;;;;4.15;1.90;;;;;;;;;;6973318;28;20049;-83
2021/07/11 09:50:11;;;;;;;1.92;1.73;;;;;;;;;;6955089;28;20125;-83
2021/07/11 09:53:31;;;;;;;3.25;1.80;;;;;;;;;;6972583;28;20063;-82
2021/07/11 09:56:52;;;;;;;2.85;1.80;;;;;;;;;;6969569;28;20049;-83
2021/07/11 10:00:16;;;;;;;2.10;1.85;;;;;;;;;;6970530;28;20144;-82
2021/07/11 10:03:36;;;;;;;3.05;1.88;;;;;;;;;;6971627;28;20499;-81
2021/07/11 10:06:57;;;;;;;1.90;1.70;;;;;;;;;;6970852;28;20099;-81
2021/07/11 10:10:20;;;;;;;4.57;1.90;;;;;;;;;;6968066;28;20072;-83
2021/07/11 10:13:40;;;;;;;2.75;1.80;;;;;;;;;;6967771;28;20056;-82
2021/07/11 10:17:04;;;;;;;3.35;1.98;;;;;;;;;;6967406;28;20045;-82
2021/07/11 10:20:34;;;;;;;3.33;2.00;;;;;;;;;;6969117;28;20087;-82
2021/07/11 10:23:54;;;;;;;2.38;2.15;;;;;;;;;;6971052;28;20119;-82
2021/07/11 10:27:26;;;;;;;2.90;2.00;;;;;;;;;;6971177;28;20044;-82
2021/07/11 10:30:47;;;;;;;3.28;2.20;;;;;;;;;;6969186;28;20441;-82
2021/07/11 10:34:07;;;;;;;2.38;2.17;;;;;;;;;;6966599;28;20544;-82
2021/07/11 10:37:27;;;;;;;3.28;2.15;;;;;;;;;;6967821;28;20490;-82
2021/07/11 10:40:48;;;;;;;4.63;2.47;;;;;;;;;;6970466;28;20073;-82
2021/07/11 10:44:30;;;;;;;6.65;2.10;;;;;;;;;;6970250;28;20041;-82
2021/07/11 10:47:51;;;;;;;3.03;2.35;;;;;;;;;;6957794;28;20045;-82
2021/07/11 10:51:18;;;;;;;3.00;2.40;;;;;;;;;;6967642;28;20436;-82
2021/07/11 10:54:49;;;;;;;4.90;2.40;;;;;;;;;;6970631;28;20093;-82
2021/07/11 10:58:14;;;;;;;3.42;2.72;;;;;;;;;;6970732;28;20056;-82
2021/07/11 11:01:37;;;;;;;2.95;2.50;;;;;;;;;;6968614;28;20109;-81
2021/07/11 11:05:12;;;;;;;3.42;2.60;;;;;;;;;;6971012;28;20041;-82
2021/07/11 11:08:42;;;;;;;2.90;2.58;;;;;;;;;;6971357;28;20049;-83
2021/07/11 11:12:36;;;;;;;2.80;2.60;;;;;;;;;;6970392;28;20075;-83
2021/07/11 11:15:58;;;;;;;3.67;2.75;;;;;;;;;;6969908;28;20040;-84
2021/07/11 11:19:19;;;;;;;3.50;2.70;;;;;;;;;;6976241;28;20059;-84
2021/07/11 11:22:39;;;;;;;3.33;2.50;;;;;;;;;;6972553;28;20060;-84
2021/07/11 11:26:00;;;;;;;3.10;2.50;;;;;;;;;;6976363;28;20080;-84
2021/07/11 11:29:25;;;;;;;3.50;2.55;;;;;;;;;;6975912;28;20040;-84
2021/07/11 11:32:54;;;;;;;3.13;2.42;;;;;;;;;;6976233;28;20064;-84
2021/07/11 11:36:20;;;;;;;3.40;2.33;;;;;;;;;;6975695;28;20401;-85
2021/07/11 11:39:40;;;;;;;2.78;2.40;;;;;;;;;;6955662;28;20096;-84
2021/07/11 11:43:06;;;;;;;5.20;2.20;;;;;;;;;;6976070;28;20060;-84
2021/07/11 11:46:31;;;;;;;2.50;2.30;;;;;;;;;;6974334;28;20045;-84
2021/07/11 11:49:51;;;;;;;3.80;2.30;;;;;;;;;;6976591;28;20139;-85
2021/07/11 11:53:14;;;;;;;5.10;2.53;;;;;;;;;;6975721;28;20483;-86
2021/07/11 11:56:40;;;;;;;5.63;2.53;;;;;;;;;;6976674;28;20048;-85
2021/07/11 12:00:01;;;;;;;4.85;2.30;;;;;;;;;;6976814;28;20055;-86
2021/07/11 12:03:22;;;;;;;3.22;2.40;;;;;;;;;;6977035;28;20048;-85
2021/07/11 12:06:47;;;;;;;5.07;2.30;;;;;;;;;;6975891;28;20037;-85
2021/07/11 12:10:09;;;;;;;2.20;2.00;;;;;;;;;;6974956;28;20037;-86
2021/07/11 12:13:29;;;;;;;4.57;2.08;;;;;;;;;;6972791;28;20053;-84
2021/07/11 12:16:57;;;;;;;8.05;1.90;;;;;;;;;;6972854;28;20071;-86
2021/07/11 12:20:19;;;;;;;1.90;1.80;;;;;;;;;;6967288;28;20052;-85
2021/07/11 12:23:40;;;;;;;3.35;2.10;;;;;;;;;;6961675;28;20056;-84
2021/07/11 12:27:02;;;;;;;2.25;2.05;;;;;;;;;;6975468;28;20045;-85
2021/07/11 12:30:23;;;;;;;5.35;1.90;;;;;;;;;;6975157;28;20079;-87
2021/07/11 12:33:46;;;;;;;2.25;1.90;;;;;;;;;;6976087;28;20068;-86
2021/07/11 12:37:10;;;;;;;2.42;1.75;;;;;;;;;;6974974;28;20049;-84
2021/07/11 12:40:32;;;;;;;2.45;1.92;;;;;;;;;;6973408;28;20128;-84
2021/07/11 12:44:02;;;;;;;2.47;1.80;;;;;;;;;;6976370;28;20045;-87
2021/07/11 12:47:22;;;;;;;2.85;1.70;;;;;;;;;;6960013;28;20045;-86
2021/07/11 12:50:46;;;;;;;4.30;2.17;;;;;;;;;;6974604;28;20064;-84
2021/07/11 12:54:13;;;;;;;2.03;1.80;;;;;;;;;;6971870;28;20124;-80
2021/07/11 12:57:34;;;;;;;6.95;2.15;;;;;;;;;;6967035;28;20045;-81
2021/07/11 13:01:03;;;;;;;2.05;1.63;;;;;;;;;;6956925;28;20057;-81
2021/07/11 13:04:23;;;;;;;1.95;1.70;;;;;;;;;;6967083;28;20045;-82
2021/07/11 13:07:44;;;;;;;3.15;2.00;;;;;;;;;;6969095;28;20394;-82
2021/07/11 13:11:04;;;;;;;3.50;1.88;;;;;;;;;;6963476;28;20136;-80
2021/07/11 13:14:25;;;;;;;4.18;1.65;;;;;;;;;;6969333;28;20057;-81
2021/07/11 13:17:45;;;;;;;1.60;1.50;;;;;;;;;;6958085;28;20057;-81
2021/07/11 13:21:06;;;;;;;1.60;1.50;;;;;;;;;;6964563;28;20057;-80
2021/07/11 13:24:26;;;;;;;3.88;1.75;;;;;;;;;;6968520;28;20060;-80
2021/07/11 13:27:47;;;;;;;2.08;1.80;;;;;;;;;;7019300;22;20057;-85
2021/07/11 13:31:07;;;;;;;1.67;1.33;;;;;;;;;;6923099;28;20049;-87
2021/07/11 13:34:28;;;;;;;1.70;1.60;;;;;;;;;;6940433;28;20085;-89
2021/07/11 13:37:49;;;;;;;2.17;1.50;;;;;;;;;;6905877;28;20046;-87
2021/07/11 13:41:09;;;;;;;4.28;1.88;;;;;;;;;;6938829;28;20092;-87
2021/07/11 13:44:30;;;;;;;2.17;1.73;;;;;;;;;;6940441;28;20045;-86
2021/07/11 13:47:50;;;;;;;2.05;1.63;;;;;;;;;;6940138;28;20487;-86
2021/07/11 13:51:11;;;;;;;3.17;1.63;;;;;;;;;;6940404;28;20041;-87
2021/07/11 13:54:32;;;;;;;1.60;1.40;;;;;;;;;;6942776;28;20045;-87
2021/07/11 13:57:52;;;;;;;3.25;1.27;;;;;;;;;;6940341;28;20103;-86
2021/07/11 14:01:13;;;;;;;1.42;1.33;;;;;;;;;;6939960;28;20518;-86
2021/07/11 14:04:33;;;;;;;1.42;1.33;;;;;;;;;;6940096;28;20496;-85
2021/07/11 14:07:54;;;;;;;1.60;1.50;;;;;;;;;;6922517;28;20113;-88
2021/07/11 14:11:14;;;;;;;1.63;1.52;;;;;;;;;;6940398;28;20540;-86
2021/07/11 14:14:38;;;;;;;1.48;1.38;;;;;;;;;;6943520;28;20137;-86
2021/07/11 14:17:58;;;;;;;1.70;1.35;;;;;;;;;;6945036;28;20055;-85
2021/07/11 14:21:19;;;;;;;1.30;1.20;;;;;;;;;;6918123;28;20050;-86
2021/07/11 14:24:40;;;;;;;1.90;1.52;;;;;;;;;;6941064;28;20126;-85
2021/07/11 14:28:01;;;;;;;1.60;1.50;;;;;;;;;;6932991;28;20054;-85
2021/07/11 14:31:21;;;;;;;1.50;1.27;;;;;;;;;;6940557;28;20466;-85
2021/07/11 14:34:42;;;;;;;1.50;1.33;;;;;;;;;;6944548;28;20131;-85
2021/07/11 14:38:04;;;;;;;1.83;1.27;;;;;;;;;;6945194;28;20092;-84
2021/07/11 14:41:24;;;;;;;1.92;1.67;;;;;;;;;;6927276;28;20056;-84
2021/07/11 14:44:45;;;;;;;4.53;1.88;;;;;;;;;;6945056;28;20058;-86
2021/07/11 14:48:06;;;;;;;1.88;1.63;;;;;;;;;;6945068;28;20572;-85
2021/07/11 14:51:26;;;;;;;1.52;1.40;;;;;;;;;;6945725;28;20442;-85
2021/07/11 14:54:47;;;;;;;1.20;1.20;;;;;;;;;;6946251;28;20588;-87
2021/07/11 14:58:07;;;;;;;2.03;1.42;;;;;;;;;;6928315;28;20144;-86
2021/07/11 15:01:27;;;;;;;1.50;1.40;;;;;;;;;;6945585;28;20046;-86
2021/07/11 15:04:48;;;;;;;1.40;1.30;;;;;;;;;;6944385;28;20057;-91
2021/07/11 15:08:09;;;;;;;1.67;1.58;;;;;;;;;;6894970;28;20149;-90
2021/07/11 15:11:29;;;;;;;1.45;1.30;;;;;;;;;;6925379;28;20140;-90
2021/07/11 15:14:51;;;;;;;1.40;1.30;;;;;;;;;;6925101;28;20053;-90
2021/07/11 15:18:12;;;;;;;1.35;1.25;;;;;;;;;;6906915;28;20049;-89
2021/07/11 15:21:32;;;;;;;1.30;1.20;;;;;;;;;;6907878;28;20103;-90
2021/07/11 15:24:53;;;;;;;1.20;1.10;;;;;;;;;;6923730;28;20052;-89
2021/07/11 15:28:14;;;;;;;1.48;1.38;;;;;;;;;;6907961;28;20554;-89
2021/07/11 15:31:35;;;;;;;1.23;1.13;;;;;;;;;;6924917;28;20049;-87
2021/07/11 15:34:56;;;;;;;1.65;1.42;;;;;;;;;;6942903;28;20049;-86
2021/07/11 15:38:17;;;;;;;1.40;1.30;;;;;;;;;;6942028;28;20128;-89
2021/07/11 15:41:37;;;;;;;1.45;1.35;;;;;;;;;;6943211;28;20053;-85
2021/07/11 15:44:57;;;;;;;1.40;1.17;;;;;;;;;;6944425;28;20042;-86
2021/07/11 15:48:19;;;;;;;2.00;1.50;;;;;;;;;;6943668;28;20049;-88
2021/07/11 15:51:39;;;;;;;3.10;1.10;;;;;;;;;;6924999;28;20053;-87
2021/07/11 15:55:02;;;;;;;1.30;1.20;;;;;;;;;;6942385;28;20045;-87
2021/07/11 15:58:22;;;;;;;1.40;1.30;;;;;;;;;;6943044;28;20049;-93
2021/07/11 16:01:43;;;;;;;1.35;1.25;;;;;;;;;;6909289;28;20478;-90
2021/07/11 16:05:10;;;;;;;2.15;1.30;;;;;;;;;;6910375;28;20132;-88
2021/07/11 16:08:30;;;;;;;1.75;1.30;;;;;;;;;;6941117;28;20132;-89
2021/07/11 16:11:52;;;;;;;3.20;1.13;;;;;;;;;;6939704;28;20076;-87
2021/07/11 16:15:12;;;;;;;1.08;1.08;;;;;;;;;;6941836;28;20068;-89
2021/07/11 16:18:33;;;;;;;2.42;1.30;;;;;;;;;;6908389;28;20125;-87
2021/07/11 16:21:53;;;;;;;2.15;1.35;;;;;;;;;;6928203;28;20145;-88
2021/07/11 16:25:14;;;;;;;2.28;1.23;;;;;;;;;;6941764;28;20049;-88
2021/07/11 16:28:35;;;;;;;1.20;1.10;;;;;;;;;;6907574;28;20046;-88
2021/07/11 16:31:55;;;;;;;1.25;1.00;;;;;;;;;;6941683;28;20057;-85
2021/07/11 16:35:16;;;;;;;1.45;1.30;;;;;;;;;;6940814;28;20057;-88
2021/07/11 16:38:36;;;;;;;1.95;1.35;;;;;;;;;;6940235;28;20065;-85
2021/07/11 16:41:56;;;;;;;2.95;1.88;;;;;;;;;;6940510;28;20084;-85
2021/07/11 16:45:17;;;;;;;3.72;1.77;;;;;;;;;;6940899;28;20049;-85
2021/07/11 16:48:38;;;;;;;4.30;2.15;;;;;;;;;;6940586;28;20572;-86
2021/07/11 16:51:58;;;;;;;2.40;1.50;;;;;;;;;;6940734;28;20041;-85
2021/07/11 16:55:19;;;;;;;2.97;1.52;;;;;;;;;;6940281;28;20392;-85
2021/07/11 16:58:40;;;;;;;6.38;1.60;;;;;;;;;;6923050;28;20491;-85
2021/07/11 17:02:00;;;;;;;2.38;1.50;;;;;;;;;;6941917;28;20121;-86
2021/07/11 17:05:21;;;;;;;3.63;1.50;;;;;;;;;;6941041;28;20049;-86
2021/07/11 17:08:41;;;;;;;2.17;1.70;;;;;;;;;;6940213;28;20037;-85
2021/07/11 17:12:02;;;;;;;2.53;1.50;;;;;;;;;;6940052;28;20422;-86
2021/07/11 17:15:22;;;;;;;2.55;1.50;;;;;;;;;;6940150;28;20491;-86
2021/07/11 17:18:43;;;;;;;1.95;1.75;;;;;;;;;;6940276;28;20403;-85
2021/07/11 17:22:03;;;;;;;3.03;1.50;;;;;;;;;;6939982;28;20048;-86
2021/07/11 17:25:25;;;;;;;1.65;1.27;;;;;;;;;;6939957;28;20053;-85
2021/07/11 17:28:46;;;;;;;1.67;1.50;;;;;;;;;;6939407;28;20673;-86
2021/07/11 17:32:07;;;;;;;2.65;1.50;;;;;;;;;;6939816;28;20057;-86
2021/07/11 17:35:27;;;;;;;3.38;1.40;;;;;;;;;;6939893;28;20045;-86
2021/07/11 17:38:48;;;;;;;2.28;1.38;;;;;;;;;;6939267;28;20099;-86
2021/07/11 17:42:08;;;;;;;4.32;1.58;;;;;;;;;;6939941;28;20044;-86
2021/07/11 17:45:29;;;;;;;7.53;1.73;;;;;;;;;;6921910;28;20057;-86
2021/07/11 17:48:49;;;;;;;1.65;1.55;;;;;;;;;;6942584;28;20060;-86
2021/07/11 17:52:10;;;;;;;1.25;1.15;;;;;;;;;;6944189;28;20514;-85
2021/07/11 17:55:30;;;;;;;2.05;1.35;;;;;;;;;;6944547;28;20060;-86
2021/07/11 17:58:51;;;;;;;1.70;1.60;;;;;;;;;;6944023;28;20061;-85
2021/07/11 18:02:11;;;;;;;3.63;1.58;;;;;;;;;;6944140;28;20045;-84
2021/07/11 18:05:32;;;;;;;1.88;1.60;;;;;;;;;;6943886;28;20139;-85
2021/07/11 18:08:54;;;;;;;2.05;1.55;;;;;;;;;;6926284;28;20061;-86
2021/07/11 18:12:15;;;;;;;3.80;1.67;;;;;;;;;;6944938;28;20065;-85
2021/07/11 18:15:36;;;;;;;1.50;1.40;;;;;;;;;;6927616;28;20480;-85
2021/07/11 18:18:56;;;;;;;1.95;1.50;;;;;;;;;;6942821;28;20145;-85
2021/07/11 18:22:17;;;;;;;4.22;1.50;;;;;;;;;;6944036;28;20046;-84
2021/07/11 18:25:38;;;;;;;3.53;1.75;;;;;;;;;;6942367;28;20077;-84
2021/07/11 18:28:58;;;;;;;8.07;1.50;;;;;;;;;;6943103;28;20045;-84
2021/07/11 18:32:19;;;;;;;4.90;1.45;;;;;;;;;;6942482;28;20050;-85
2021/07/11 18:35:39;;;;;;;2.40;1.73;;;;;;;;;;6943025;28;20140;-85
2021/07/11 18:38:59;;;;;;;3.35;1.40;;;;;;;;;;6942895;28;20123;-85
2021/07/11 18:42:20;;;;;;;5.60;1.52;;;;;;;;;;6943525;28;20056;-84
2021/07/11 18:45:41;;;;;;;2.22;1.40;;;;;;;;;;6942914;28;20415;-85
2021/07/11 18:49:03;;;;;;;3.92;1.45;;;;;;;;;;6924208;28;20048;-85
2021/07/11 18:52:23;;;;;;;6.28;1.98;;;;;;;;;;6941943;28;20133;-86
2021/07/11 18:55:45;;;;;;;1.40;1.30;;;;;;;;;;6942301;28;20041;-86
2021/07/11 18:59:06;;;;;;;4.75;1.45;;;;;;;;;;6923955;28;20403;-85
2021/07/11 19:02:27;;;;;;;3.70;1.40;;;;;;;;;;6942626;28;20523;-86
2021/07/11 19:05:47;;;;;;;7.22;2.03;;;;;;;;;;6942702;28;20038;-86
2021/07/11 19:09:08;;;;;;;2.47;1.20;;;;;;;;;;6924079;28;20069;-86
2021/07/11 19:12:31;;;;;;;3.97;1.67;;;;;;;;;;6924304;28;20119;-86
2021/07/11 19:15:51;;;;;;;1.50;1.33;;;;;;;;;;6942099;28;20332;-86
2021/07/11 19:19:12;;;;;;;2.92;1.98;;;;;;;;;;6942276;28;20052;-86
2021/07/11 19:22:32;;;;;;;5.25;1.60;;;;;;;;;;6941432;28;20057;-86
2021/07/11 19:25:53;;;;;;;3.05;1.70;;;;;;;;;;6942188;28;20105;-85
2021/07/11 19:29:13;;;;;;;2.63;1.40;;;;;;;;;;6942033;28;20045;-86
2021/07/11 19:32:33;;;;;;;3.17;1.50;;;;;;;;;;6942206;28;20069;-86
2021/07/11 19:35:54;;;;;;;3.00;1.67;;;;;;;;;;6941921;28;20095;-86
2021/07/11 19:39:14;;;;;;;5.03;1.98;;;;;;;;;;6942054;28;20041;-86
2021/07/11 19:42:35;;;;;;;3.55;1.75;;;;;;;;;;6941291;28;20514;-86
2021/07/11 19:45:57;;;;;;;2.42;1.65;;;;;;;;;;6941951;28;20120;-87
2021/07/11 19:49:17;;;;;;;1.70;1.55;;;;;;;;;;6941689;28;20383;-86
2021/07/11 19:52:38;;;;;;;2.38;1.50;;;;;;;;;;6941700;28;20061;-86
2021/07/11 19:56:05;;;;;;;1.88;1.20;;;;;;;;;;6941341;28;20077;-87
2021/07/11 19:59:26;;;;;;;2.47;1.58;;;;;;;;;;6941758;28;20057;-87
2021/07/11 20:02:46;;;;;;;3.50;1.70;;;;;;;;;;6923753;28;20049;-87
2021/07/11 20:06:07;;;;;;;2.13;1.50;;;;;;;;;;6941146;28;20053;-86
2021/07/11 20:09:30;;;;;;;1.92;1.30;;;;;;;;;;6941467;28;20487;-87